createdAt,value
2022-09-20T00:01:23.572Z,3.20
2022-09-20T00:03:49.965Z,2.70
2022-09-20T00:06:16.278Z,3.30
2022-09-20T00:08:42.747Z,1.70
2022-09-20T00:11:09.057Z,2.88
2022-09-20T00:13:35.351Z,2.25
2022-09-20T00:16:01.639Z,2.85
2022-09-20T00:18:28.042Z,2.20
2022-09-20T00:20:54.788Z,2.10
2022-09-20T00:23:21.117Z,2.63
2022-09-20T00:25:47.422Z,2.38
2022-09-20T00:28:13.809Z,2.67
2022-09-20T00:30:40.247Z,1.92
2022-09-20T00:33:06.592Z,2.40
2022-09-20T00:35:33.111Z,2.03
2022-09-20T00:37:59.462Z,3.10
2022-09-20T00:40:25.837Z,2.13
2022-09-20T00:42:52.295Z,2.28
2022-09-20T00:45:18.617Z,2.25
2022-09-20T00:47:45.271Z,2.20
2022-09-20T00:50:11.742Z,2.40
2022-09-20T00:52:38.573Z,2.50
2022-09-20T00:55:04.840Z,3.00
2022-09-20T00:57:31.393Z,2.65
2022-09-20T00:59:58.114Z,2.42
2022-09-20T01:02:24.478Z,1.88
2022-09-20T01:04:51.203Z,2.25
2022-09-20T01:07:17.515Z,2.92
2022-09-20T01:09:43.998Z,2.15
2022-09-20T01:12:10.406Z,2.08
2022-09-20T01:14:37.072Z,2.10
2022-09-20T01:17:03.473Z,2.05
2022-09-20T01:19:31.366Z,2.35
2022-09-20T01:21:57.661Z,2.65
2022-09-20T01:24:23.945Z,2.30
2022-09-20T01:26:50.497Z,2.17
2022-09-20T01:29:17.107Z,2.15
2022-09-20T01:31:43.746Z,2.47
2022-09-20T01:34:10.440Z,1.67
2022-09-20T01:36:36.820Z,2.20
2022-09-20T01:39:03.361Z,2.28
2022-09-20T01:41:29.602Z,2.33
2022-09-20T01:43:56.190Z,1.80
2022-09-20T01:46:22.703Z,2.63
2022-09-20T01:48:48.983Z,2.25
2022-09-20T01:51:15.417Z,2.38
2022-09-20T01:53:41.761Z,2.40
2022-09-20T01:56:08.054Z,2.17
2022-09-20T01:58:34.421Z,2.17
2022-09-20T02:01:00.857Z,2.05
2022-09-20T02:03:27.251Z,2.45
2022-09-20T02:05:53.663Z,2.20
2022-09-20T02:08:19.897Z,1.70
2022-09-20T02:10:46.405Z,2.20
2022-09-20T02:13:12.701Z,2.15
2022-09-20T02:15:39.029Z,2.45
2022-09-20T02:18:05.347Z,3.22
2022-09-20T02:20:31.762Z,1.70
2022-09-20T02:22:58.076Z,1.77
2022-09-20T02:25:24.467Z,1.90
2022-09-20T02:27:50.827Z,2.05
2022-09-20T02:30:17.116Z,2.28
2022-09-20T02:32:43.351Z,2.67
2022-09-20T02:35:09.723Z,3.60
2022-09-20T02:37:36.029Z,1.92
2022-09-20T02:40:02.350Z,2.17
2022-09-20T02:42:28.677Z,2.40
2022-09-20T02:44:54.990Z,1.83
2022-09-20T02:47:21.282Z,2.10
2022-09-20T02:49:47.667Z,2.25
2022-09-20T02:52:14.012Z,2.40
2022-09-20T02:54:40.356Z,2.50
2022-09-20T02:57:06.629Z,1.83
2022-09-20T02:59:32.886Z,2.20
2022-09-20T03:01:59.196Z,1.65
2022-09-20T03:04:25.495Z,2.63
2022-09-20T03:06:51.843Z,3.17
2022-09-20T03:09:18.291Z,1.52
2022-09-20T03:11:44.591Z,1.90
2022-09-20T03:14:10.875Z,2.88
2022-09-20T03:16:37.283Z,1.50
2022-09-20T03:19:03.678Z,1.70
2022-09-20T03:21:30.205Z,2.50
2022-09-20T03:23:56.729Z,2.80
2022-09-20T03:26:23.058Z,1.42
2022-09-20T03:28:49.734Z,2.17
2022-09-20T03:31:16.040Z,1.85
2022-09-20T03:33:42.313Z,1.83
2022-09-20T03:36:08.630Z,2.65
2022-09-20T03:38:34.914Z,2.53
2022-09-20T03:41:01.556Z,2.38
2022-09-20T03:43:27.790Z,1.63
2022-09-20T03:45:54.492Z,2.20
2022-09-20T03:48:20.857Z,1.80
2022-09-20T03:50:47.121Z,1.95
2022-09-20T03:53:14.559Z,2.35
2022-09-20T03:55:40.833Z,2.17
2022-09-20T03:58:09.032Z,2.28
2022-09-20T04:00:35.518Z,1.98
2022-09-20T04:03:02.063Z,2.25
2022-09-20T04:05:28.469Z,2.30
2022-09-20T04:07:54.749Z,1.40
2022-09-20T04:10:21.003Z,1.92
2022-09-20T04:12:47.427Z,1.98
2022-09-20T04:15:13.915Z,2.45
2022-09-20T04:17:40.237Z,1.85
2022-09-20T04:20:06.585Z,2.55
2022-09-20T04:22:33.809Z,2.40
2022-09-20T04:25:00.119Z,1.40
2022-09-20T04:27:26.426Z,2.00
2022-09-20T04:29:52.704Z,1.48
2022-09-20T04:32:19.243Z,2.40
2022-09-20T04:34:45.538Z,2.10
2022-09-20T04:37:11.862Z,2.33
2022-09-20T04:39:38.145Z,2.17
2022-09-20T04:42:04.702Z,2.20
2022-09-20T04:44:30.978Z,1.90
2022-09-20T04:46:57.586Z,1.85
2022-09-20T04:49:23.871Z,2.33
2022-09-20T04:51:50.380Z,2.28
2022-09-20T04:54:16.767Z,1.70
2022-09-20T04:56:43.171Z,2.10
2022-09-20T04:59:09.508Z,1.33
2022-09-20T05:01:35.871Z,1.63
2022-09-20T05:04:02.215Z,2.38
2022-09-20T05:06:28.551Z,2.33
2022-09-20T05:08:58.882Z,3.70
2022-09-20T05:11:25.437Z,1.83
2022-09-20T05:13:51.919Z,2.28
2022-09-20T05:16:18.233Z,1.52
2022-09-20T05:18:44.621Z,1.80
2022-09-20T05:21:10.887Z,2.08
2022-09-20T05:23:37.596Z,2.50
2022-09-20T05:26:03.877Z,2.55
2022-09-20T05:28:30.120Z,2.80
2022-09-20T05:30:56.398Z,1.63
2022-09-20T05:33:22.700Z,3.00
2022-09-20T05:35:49.231Z,2.55
2022-09-20T05:38:15.637Z,3.33
2022-09-20T05:40:42.116Z,4.50
2022-09-20T05:43:08.481Z,1.95
2022-09-20T05:45:34.768Z,1.63
2022-09-20T05:48:01.142Z,4.50
2022-09-20T05:50:27.596Z,4.35
2022-09-20T05:52:53.897Z,1.98
2022-09-20T05:55:20.391Z,1.77
2022-09-20T05:57:46.615Z,1.75
2022-09-20T06:00:12.903Z,6.20
2022-09-20T06:02:40.736Z,4.15
2022-09-20T06:05:07.117Z,4.22
2022-09-20T06:07:33.576Z,5.63
2022-09-20T06:09:59.923Z,5.40
2022-09-20T06:12:26.333Z,3.53
2022-09-20T06:14:52.896Z,4.43
2022-09-20T06:17:19.207Z,4.75
2022-09-20T06:19:45.505Z,3.08
2022-09-20T06:22:11.891Z,3.90
2022-09-20T06:24:38.196Z,4.15
2022-09-20T06:27:04.772Z,4.38
2022-09-20T06:29:31.110Z,4.88
2022-09-20T06:31:57.581Z,4.80
2022-09-20T06:34:23.944Z,5.22
2022-09-20T06:36:50.306Z,5.82
2022-09-20T06:39:16.614Z,5.63
2022-09-20T06:41:42.952Z,3.90
2022-09-20T06:44:09.522Z,6.40
2022-09-20T06:46:35.935Z,5.47
2022-09-20T06:49:03.659Z,5.47
2022-09-20T06:51:30.016Z,7.85
2022-09-20T06:53:56.343Z,4.75
2022-09-20T06:56:22.872Z,7.75
2022-09-20T06:58:49.160Z,4.65
2022-09-20T07:01:22.984Z,5.43
2022-09-20T07:03:56.011Z,91.70
2022-09-20T07:06:22.544Z,234.77
2022-09-20T07:08:49.088Z,191.88
2022-09-20T07:11:15.395Z,189.35
2022-09-20T07:13:41.958Z,183.05
2022-09-20T07:16:08.330Z,178.52
2022-09-20T07:18:34.955Z,170.25
2022-09-20T07:21:01.748Z,164.05
2022-09-20T07:23:28.785Z,147.52
2022-09-20T07:25:55.072Z,152.32
2022-09-20T07:28:21.393Z,134.77
2022-09-20T07:30:47.918Z,125.85
2022-09-20T07:33:14.440Z,113.85
2022-09-20T07:35:40.828Z,107.68
2022-09-20T07:38:07.243Z,100.35
2022-09-20T07:40:33.655Z,96.82
2022-09-20T07:43:00.105Z,89.82
2022-09-20T07:45:26.576Z,87.90
2022-09-20T07:47:53.039Z,99.72
2022-09-20T07:50:19.393Z,299.55
2022-09-20T07:52:45.707Z,264.95
2022-09-20T07:55:11.935Z,231.77
2022-09-20T07:57:38.873Z,216.93
2022-09-20T08:00:05.712Z,198.48
2022-09-20T08:02:32.026Z,185.05
2022-09-20T08:04:59.321Z,171.60
2022-09-20T08:07:26.240Z,166.40
2022-09-20T08:09:52.975Z,153.18
2022-09-20T08:15:11.059Z,135.50
2022-09-20T08:17:38.206Z,128.73
2022-09-20T08:20:05.337Z,118.10
2022-09-20T08:22:31.705Z,114.57
2022-09-20T08:24:58.105Z,107.18
2022-09-20T08:27:24.366Z,104.40
2022-09-20T08:29:50.808Z,205.90
2022-09-20T08:32:18.331Z,258.73
2022-09-20T08:34:49.387Z,281.48
2022-09-20T08:37:15.823Z,256.30
2022-09-20T08:39:58.448Z,243.98
2022-09-20T08:42:25.347Z,243.05
2022-09-20T08:44:59.379Z,245.05
2022-09-20T08:47:25.853Z,242.27
2022-09-20T08:49:56.707Z,235.48
2022-09-20T08:52:23.647Z,230.30
2022-09-20T08:54:50.053Z,225.43
2022-09-20T08:57:16.545Z,224.13
2022-09-20T08:59:43.193Z,215.63
2022-09-20T09:02:09.681Z,212.13
2022-09-20T09:04:36.075Z,242.52
2022-09-20T09:07:02.386Z,469.77
2022-09-20T09:09:28.720Z,559.25
2022-09-20T09:11:55.044Z,460.75
2022-09-20T09:14:21.379Z,420.25
2022-09-20T09:16:47.973Z,387.55
2022-09-20T09:19:14.357Z,358.58
2022-09-20T09:21:40.868Z,355.85
2022-09-20T09:24:07.135Z,335.20
2022-09-20T09:26:33.579Z,327.73
2022-09-20T09:29:00.081Z,327.58
2022-09-20T09:31:26.505Z,320.73
2022-09-20T09:33:52.895Z,306.38
2022-09-20T09:36:19.241Z,302.98
2022-09-20T09:38:45.518Z,296.77
2022-09-20T09:41:12.049Z,286.27
2022-09-20T09:43:38.476Z,285.50
2022-09-20T09:46:05.532Z,277.63
2022-09-20T09:48:31.849Z,277.67
2022-09-20T09:50:58.185Z,274.70
2022-09-20T09:53:24.711Z,265.13
2022-09-20T09:55:51.176Z,266.10
2022-09-20T09:58:17.716Z,257.52
2022-09-20T10:00:44.023Z,255.10
2022-09-20T10:03:10.350Z,248.95
2022-09-20T10:05:36.628Z,249.15
2022-09-20T10:08:03.077Z,248.23
2022-09-20T10:10:29.581Z,246.23
2022-09-20T10:12:56.091Z,234.80
2022-09-20T10:15:22.409Z,228.38
2022-09-20T10:17:48.729Z,227.70
2022-09-20T10:20:15.043Z,220.23
2022-09-20T10:22:41.315Z,218.43
2022-09-20T10:25:07.589Z,217.80
2022-09-20T10:27:33.893Z,214.80
2022-09-20T10:30:00.300Z,209.25
2022-09-20T10:32:26.871Z,205.88
2022-09-20T10:34:53.105Z,198.88
2022-09-20T10:37:19.469Z,202.43
2022-09-20T10:39:45.773Z,199.50
2022-09-20T10:42:12.113Z,195.93
2022-09-20T10:44:38.449Z,190.50
2022-09-20T10:47:04.766Z,194.70
2022-09-20T10:49:31.127Z,188.40
2022-09-20T10:51:57.663Z,190.50
2022-09-20T10:54:24.587Z,184.10
2022-09-20T10:56:50.927Z,184.73
2022-09-20T10:59:17.262Z,177.85
2022-09-20T11:01:44.028Z,174.55
2022-09-20T11:04:10.529Z,172.15
2022-09-20T11:06:36.873Z,174.02
2022-09-20T11:09:03.296Z,172.98
2022-09-20T11:11:29.802Z,166.98
2022-09-20T11:13:56.224Z,163.23
2022-09-20T11:16:22.568Z,162.68
2022-09-20T11:18:49.314Z,158.48
2022-09-20T11:21:15.718Z,158.73
2022-09-20T11:23:42.166Z,154.10
2022-09-20T11:26:08.682Z,152.25
2022-09-20T11:28:34.967Z,153.73
2022-09-20T11:31:01.475Z,151.40
2022-09-20T11:33:27.721Z,146.65
2022-09-20T11:35:54.095Z,144.60
2022-09-20T11:38:21.039Z,144.27
2022-09-20T11:40:47.375Z,138.32
2022-09-20T11:43:13.702Z,136.65
2022-09-20T11:45:40.514Z,134.57
2022-09-20T11:48:06.939Z,133.63
2022-09-20T11:50:33.261Z,130.57
2022-09-20T11:52:59.582Z,130.40
2022-09-20T11:55:25.929Z,127.00
2022-09-20T11:57:52.295Z,124.53
2022-09-20T12:00:18.941Z,120.32
2022-09-20T12:02:45.532Z,122.82
2022-09-20T12:05:11.985Z,121.05
2022-09-20T12:07:39.697Z,116.60
2022-09-20T12:10:06.528Z,116.72
2022-09-20T12:12:32.785Z,116.22
2022-09-20T12:14:59.249Z,111.18
2022-09-20T12:17:25.687Z,109.78
2022-09-20T12:19:51.986Z,110.72
2022-09-20T12:22:18.321Z,109.25
2022-09-20T12:24:45.649Z,105.40
2022-09-20T12:27:13.093Z,104.35
2022-09-20T12:29:39.389Z,102.85
2022-09-20T12:32:05.671Z,103.18
2022-09-20T12:34:32.017Z,95.72
2022-09-20T12:36:58.393Z,106.82
2022-09-20T12:39:29.463Z,100.45
2022-09-20T12:41:56.622Z,99.72
2022-09-20T12:44:22.958Z,106.32
2022-09-20T12:46:49.603Z,99.80
2022-09-20T12:49:15.880Z,104.82
2022-09-20T12:51:43.084Z,100.72
2022-09-20T12:54:09.397Z,96.22
2022-09-20T12:56:36.093Z,100.05
2022-09-20T12:59:02.428Z,94.28
2022-09-20T13:01:28.795Z,92.65
2022-09-20T13:03:55.167Z,95.07
2022-09-20T13:06:21.583Z,88.63
2022-09-20T13:08:47.941Z,93.78
2022-09-20T13:11:14.182Z,80.50
2022-09-20T13:13:40.618Z,82.57
2022-09-20T13:16:07.088Z,78.43
2022-09-20T13:18:33.404Z,77.97
2022-09-20T13:20:59.649Z,78.32
2022-09-20T13:23:26.013Z,78.82
2022-09-20T13:25:52.292Z,71.88
2022-09-20T13:28:21.201Z,69.53
2022-09-20T13:30:48.388Z,73.43
2022-09-20T13:33:14.661Z,76.70
2022-09-20T13:35:41.145Z,72.43
2022-09-20T13:38:07.457Z,68.32
2022-09-20T13:40:34.273Z,71.95
2022-09-20T13:43:22.111Z,61.58
2022-09-20T13:45:47.088Z,62.20
2022-09-20T13:48:13.441Z,60.88
2022-09-20T13:50:44.870Z,60.60
2022-09-20T13:53:23.498Z,52.92
2022-09-20T13:55:58.952Z,58.30
2022-09-20T13:58:25.224Z,53.60
2022-09-20T14:00:51.484Z,55.67
2022-09-20T14:03:18.313Z,52.50
2022-09-20T14:05:44.605Z,55.42
2022-09-20T14:08:10.902Z,53.67
2022-09-20T14:10:37.412Z,49.28
2022-09-20T14:13:03.869Z,50.38
2022-09-20T14:15:31.104Z,51.65
2022-09-20T14:17:57.444Z,48.42
2022-09-20T14:20:23.853Z,47.28
2022-09-20T14:22:50.138Z,47.28
2022-09-20T14:25:16.380Z,50.05
2022-09-20T14:27:42.748Z,43.95
2022-09-20T14:30:09.405Z,41.42
2022-09-20T14:32:35.737Z,42.08
2022-09-20T14:35:02.051Z,43.88
2022-09-20T14:37:28.325Z,42.60
2022-09-20T14:39:55.086Z,42.20
2022-09-20T14:42:21.508Z,40.65
2022-09-20T14:44:47.873Z,39.17
2022-09-20T14:47:14.283Z,38.17
2022-09-20T14:49:40.584Z,38.35
2022-09-20T14:52:07.020Z,38.35
2022-09-20T14:54:33.410Z,34.08
2022-09-20T14:56:59.717Z,33.92
2022-09-20T14:59:25.945Z,33.45
2022-09-20T15:01:52.453Z,34.55
2022-09-20T15:04:18.704Z,34.13
2022-09-20T15:06:44.970Z,37.80
2022-09-20T15:09:11.569Z,32.92
2022-09-20T15:11:37.823Z,31.25
2022-09-20T15:14:04.325Z,33.13
2022-09-20T15:16:31.032Z,32.05
2022-09-20T15:18:57.341Z,33.67
2022-09-20T15:21:23.680Z,33.20
2022-09-20T15:23:49.928Z,32.05
2022-09-20T15:26:16.170Z,29.23
2022-09-20T15:28:42.445Z,30.40
2022-09-20T15:31:08.987Z,30.48
2022-09-20T15:33:35.321Z,29.60
2022-09-20T15:36:01.692Z,29.73
2022-09-20T15:38:28.007Z,28.63
2022-09-20T15:40:54.332Z,30.05
2022-09-20T15:43:20.594Z,27.45
2022-09-20T15:45:46.904Z,27.23
2022-09-20T15:48:13.551Z,30.08
2022-09-20T15:50:39.794Z,28.40
2022-09-20T15:53:06.000Z,25.55
2022-09-20T15:55:32.321Z,24.17
2022-09-20T15:57:58.711Z,24.90
2022-09-20T16:00:24.971Z,24.67
2022-09-20T16:02:51.455Z,26.58
2022-09-20T16:05:17.808Z,24.98
2022-09-20T16:07:44.345Z,23.65
2022-09-20T16:10:11.209Z,24.35
2022-09-20T16:12:37.480Z,25.60
2022-09-20T16:15:04.202Z,24.05
2022-09-20T16:17:30.475Z,23.83
2022-09-20T16:19:56.724Z,24.15
2022-09-20T16:22:23.252Z,23.40
2022-09-20T16:24:49.494Z,23.83
2022-09-20T16:27:15.774Z,23.08
2022-09-20T16:29:42.100Z,21.95
2022-09-20T16:32:08.369Z,22.42
2022-09-20T16:34:34.714Z,21.17
2022-09-20T16:37:01.096Z,21.15
2022-09-20T16:39:27.313Z,20.52
2022-09-20T16:41:53.605Z,23.80
2022-09-20T16:44:19.904Z,21.63
2022-09-20T16:46:46.338Z,20.48
2022-09-20T16:49:12.637Z,20.33
2022-09-20T16:51:39.159Z,19.70
2022-09-20T16:54:05.652Z,22.42
2022-09-20T16:56:31.935Z,18.70
2022-09-20T16:58:58.193Z,19.50
2022-09-20T17:01:24.487Z,20.05
2022-09-20T17:03:50.780Z,19.50
2022-09-20T17:06:17.087Z,19.40
2022-09-20T17:08:43.602Z,20.25
2022-09-20T17:11:10.099Z,19.73
2022-09-20T17:13:36.401Z,19.55
2022-09-20T17:16:02.792Z,18.05
2022-09-20T17:18:29.304Z,18.58
2022-09-20T17:20:55.644Z,18.73
2022-09-20T17:23:22.105Z,17.77
2022-09-20T17:25:48.617Z,18.35
2022-09-20T17:28:14.906Z,18.45
2022-09-20T17:30:41.589Z,17.48
2022-09-20T17:33:07.961Z,16.63
2022-09-20T17:35:34.221Z,16.45
2022-09-20T17:38:00.676Z,16.65
2022-09-20T17:40:26.957Z,16.83
2022-09-20T17:42:53.386Z,17.73
2022-09-20T17:45:19.697Z,17.73
2022-09-20T17:47:46.733Z,17.17
2022-09-20T17:50:13.013Z,16.70
2022-09-20T17:52:40.395Z,16.02
2022-09-20T17:55:06.887Z,14.77
2022-09-20T17:57:33.314Z,16.20
2022-09-20T17:59:59.936Z,15.18
2022-09-20T18:02:26.289Z,15.20
2022-09-20T18:04:52.581Z,14.45
2022-09-20T18:07:18.897Z,15.25
2022-09-20T18:09:45.193Z,14.25
2022-09-20T18:12:16.656Z,15.38
2022-09-20T18:14:44.506Z,15.52
2022-09-20T18:17:10.752Z,13.93
2022-09-20T18:19:37.103Z,14.07
2022-09-20T18:22:03.386Z,13.73
2022-09-20T18:24:29.699Z,14.73
2022-09-20T18:26:56.132Z,14.57
2022-09-20T18:29:22.386Z,14.88
2022-09-20T18:31:48.863Z,14.18
2022-09-20T18:34:15.148Z,12.85
2022-09-20T18:36:41.648Z,12.93
2022-09-20T18:39:07.981Z,14.10
2022-09-20T18:41:34.283Z,14.20
2022-09-20T18:44:00.553Z,12.55
2022-09-20T18:46:27.072Z,13.38
2022-09-20T18:48:53.603Z,13.35
2022-09-20T18:51:20.356Z,11.85
2022-09-20T18:53:46.656Z,13.27
2022-09-20T18:56:12.912Z,11.98
2022-09-20T18:58:39.185Z,12.20
2022-09-20T19:01:05.847Z,11.40
2022-09-20T19:03:32.246Z,11.85
2022-09-20T19:05:58.552Z,12.48
2022-09-20T19:08:24.844Z,12.35
2022-09-20T19:10:51.091Z,11.32
2022-09-20T19:13:17.345Z,11.93
2022-09-20T19:15:43.562Z,11.88
2022-09-20T19:18:10.008Z,11.43
2022-09-20T19:20:36.295Z,10.88
2022-09-20T19:23:02.905Z,11.23
2022-09-20T19:25:29.175Z,12.27
2022-09-20T19:27:55.892Z,11.32
2022-09-20T19:30:22.169Z,11.00
2022-09-20T19:32:48.390Z,10.63
2022-09-20T19:35:14.817Z,10.40
2022-09-20T19:37:41.185Z,11.10
2022-09-20T19:40:07.545Z,10.13
2022-09-20T19:42:33.835Z,9.63
2022-09-20T19:45:00.087Z,9.70
2022-09-20T19:47:26.494Z,10.35
2022-09-20T19:49:52.804Z,10.20
2022-09-20T19:52:19.318Z,10.38
2022-09-20T19:54:46.524Z,10.05
2022-09-20T19:57:13.035Z,9.90
2022-09-20T19:59:39.435Z,9.63
2022-09-20T20:02:06.026Z,9.68
2022-09-20T20:04:32.288Z,9.18
2022-09-20T20:06:58.794Z,9.35
2022-09-20T20:09:25.410Z,8.90
2022-09-20T20:11:51.862Z,9.30
2022-09-20T20:14:18.180Z,8.70
2022-09-20T20:16:44.524Z,9.85
2022-09-20T20:19:10.852Z,9.35
2022-09-20T20:21:37.152Z,8.48
2022-09-20T20:24:03.631Z,9.35
2022-09-20T20:26:29.927Z,8.18
2022-09-20T20:28:56.469Z,9.07
2022-09-20T20:31:22.838Z,7.85
2022-09-20T20:33:49.181Z,8.55
2022-09-20T20:36:15.532Z,9.45
2022-09-20T20:38:41.909Z,8.48
2022-09-20T20:41:08.236Z,8.13
2022-09-20T20:43:34.638Z,8.13
2022-09-20T20:46:00.902Z,8.55
2022-09-20T20:48:27.206Z,10.10
2022-09-20T20:50:53.722Z,8.05
2022-09-20T20:53:20.241Z,7.38
2022-09-20T20:55:46.488Z,8.82
2022-09-20T20:58:12.812Z,9.20
2022-09-20T21:00:39.108Z,8.10
2022-09-20T21:03:05.468Z,8.02
2022-09-20T21:05:31.996Z,7.97
2022-09-20T21:07:58.288Z,8.27
2022-09-20T21:10:24.661Z,7.15
2022-09-20T21:12:50.948Z,7.03
2022-09-20T21:15:17.213Z,8.93
2022-09-20T21:17:43.478Z,7.28
2022-09-20T21:20:09.715Z,6.93
2022-09-20T21:22:36.327Z,7.43
2022-09-20T21:25:02.609Z,6.00
2022-09-20T21:27:28.891Z,6.57
2022-09-20T21:29:55.137Z,6.70
2022-09-20T21:32:21.439Z,6.63
2022-09-20T21:34:48.654Z,7.13
2022-09-20T21:37:14.924Z,7.28
2022-09-20T21:39:41.308Z,6.63
2022-09-20T21:42:07.899Z,7.15
2022-09-20T21:44:34.208Z,6.80
2022-09-20T21:47:00.524Z,6.72
2022-09-20T21:49:26.761Z,7.07
2022-09-20T21:51:53.111Z,6.00
2022-09-20T21:54:19.377Z,6.22
2022-09-20T21:56:45.844Z,6.47
2022-09-20T21:59:12.099Z,7.10
2022-09-20T22:01:38.386Z,6.20
2022-09-20T22:04:04.925Z,5.72
2022-09-20T22:06:31.435Z,6.25
2022-09-20T22:08:57.794Z,5.93
2022-09-20T22:11:24.096Z,5.55
2022-09-20T22:13:50.512Z,5.75
2022-09-20T22:16:16.809Z,5.97
2022-09-20T22:18:43.259Z,6.10
2022-09-20T22:21:09.838Z,6.55
2022-09-20T22:23:36.180Z,5.85
2022-09-20T22:26:02.437Z,5.75
2022-09-20T22:28:28.689Z,7.20
2022-09-20T22:30:55.311Z,5.43
2022-09-20T22:33:21.620Z,5.75
2022-09-20T22:35:47.901Z,6.15
2022-09-20T22:38:14.183Z,5.53
2022-09-20T22:40:40.451Z,6.00
2022-09-20T22:43:06.715Z,4.90
2022-09-20T22:45:33.049Z,4.88
2022-09-20T22:47:59.340Z,5.32
2022-09-20T22:50:25.708Z,5.22
2022-09-20T22:52:51.988Z,5.82
2022-09-20T22:55:18.500Z,5.32
2022-09-20T22:57:44.884Z,4.85
2022-09-20T23:00:11.189Z,4.75
2022-09-20T23:02:37.603Z,6.28
2022-09-20T23:05:03.967Z,5.20
2022-09-20T23:07:30.324Z,5.10
2022-09-20T23:09:56.573Z,5.00
2022-09-20T23:12:22.945Z,4.63
2022-09-20T23:14:49.259Z,5.15
2022-09-20T23:17:15.636Z,6.47
2022-09-20T23:19:42.156Z,5.15
2022-09-20T23:22:08.458Z,5.28
2022-09-20T23:24:34.712Z,5.40
2022-09-20T23:27:01.069Z,4.38
2022-09-20T23:29:27.333Z,4.55
2022-09-20T23:31:53.694Z,5.00
2022-09-20T23:34:19.925Z,5.40
2022-09-20T23:36:46.233Z,5.30
2022-09-20T23:39:12.514Z,4.60
2022-09-20T23:41:38.937Z,4.38
2022-09-20T23:44:05.301Z,4.95
2022-09-20T23:46:31.566Z,4.47
2022-09-20T23:48:58.352Z,4.88
2022-09-20T23:51:24.811Z,4.60
2022-09-20T23:53:51.106Z,4.32
2022-09-20T23:56:17.367Z,4.30
2022-09-20T23:58:43.571Z,4.18
